Airfield :
LOGIN :

Register | Disclaimer

   EN    FR    IT 

 










Legend :    VFR   Marginal VFR   IFR   Intensive IFR   Very Intensive IFR
Visi :
Ceiling :
>= 8 km
>= 3000ft
5 to 8 km
1000 to 3000 ft
1500m to 5 km
500 to 1000 ft
800 to 1500m
200 to 500 ft
< 800m
< 200 ft
Symbols :   Thunderstorms  Fog  Heavy snow  Heavy precipitations  Wind > 20 kt
SIGMETs :     Misc.  Thunderstorms  Icing  Turbulence  Mountain Waves  Volcanic Ashes






- Airport Elevation : 238 ft
- IATA code : UAB


LTAG - Incirlik AB

CURRENT METAR :
  • 270850Z 11005KT CAVOK 33/09 Q1012 BECMG 18012KT

EXPIRED METARs :
  • 270820Z 13003KT CAVOK 33/09 Q1012 NOSIG
  • 270750Z 08004KT CAVOK 32/09 Q1012 NOSIG
  • 270720Z 09003KT CAVOK 31/10 Q1012 NOSIG
  • 270650Z 06007KT CAVOK 31/10 Q1013 NOSIG
  • 270620Z 03009KT CAVOK 30/10 Q1013 NOSIG

TAF TAF LTAG
Valid from the 27 at 06:00 until the 28 at 06:00 UTC


270440Z 2706/2806 VRB02KT CAVOK
BECMG 2709/2711 18012KT
BECMG 2715/2717 VRB02KT
BECMG 2720/2722 SCT030



MET'MAP, your aeronautical weather chart ! - Copyright ORBIFLY December 2007 - Disclaimer

ORBIFLY MET'MAP TEAM :

Programming & Development : Alexandra Zaïnal
Concept & original design : Baudouin d'Aumeries
Assistance for programming : Marc-Olivier Méhu
Technical & hardware support : Manuel Goepfert

Contact : metmap@orbifly.com




SOURCES & CREDITS :

   NOAA